Time;durP1;ratioP1;P1;durP2;ratioP2;P2;SDS_P1;SDS_P2;PMS_P1;PMS_P2;Temp;Humidity;BMP_temperature;BMP_pressure;BME280_temperature;BME280_humidity;BME280_pressure;Samples;Min_cycle;Max_cycle;Signal;HPM_P1;HPM_P2
2022/03/18 07:10:07;;;;;;;;;15.00;14.75;;;;;16.52;54.84;103503.72;5064815;27;45512;-77
2022/03/18 07:12:33;;;;;;;;;20.25;13.75;;;;;16.70;54.70;103508.44;5052787;27;45582;-84
2022/03/18 07:14:58;;;;;;;;;16.50;14.50;;;;;16.93;54.56;103509.38;5050230;27;45522;-76
2022/03/18 07:20:08;;;;;;;;;19.00;15.25;;;;;17.44;53.21;103509.28;5048510;27;46061;-72
2022/03/18 07:22:34;;;;;;;;;20.50;16.75;;;;;17.67;52.90;103499.44;5048265;28;47021;-72
2022/03/18 07:24:59;;;;;;;;;22.75;14.75;;;;;17.89;52.30;103501.22;5054550;28;45438;-73
2022/03/18 07:27:24;;;;;;;;;20.75;18.25;;;;;18.10;52.18;103506.69;5069130;27;48659;-71
2022/03/18 07:29:50;;;;;;;;;21.25;17.00;;;;;18.31;51.81;103499.50;5061603;27;45450;-71
2022/03/18 07:32:15;;;;;;;;;22.25;18.75;;;;;18.48;51.26;103501.47;5048510;28;45568;-71
2022/03/18 07:34:41;;;;;;;;;20.00;15.25;;;;;18.67;51.12;103512.28;5050527;28;45530;-71
2022/03/18 07:37:06;;;;;;;;;18.50;15.50;;;;;18.81;50.83;103495.50;5047406;28;45724;-71
2022/03/18 07:39:31;;;;;;;;;16.25;15.50;;;;;18.96;50.34;103487.66;5056286;28;45572;-71
2022/03/18 07:41:56;;;;;;;;;20.25;19.00;;;;;19.10;50.28;103489.78;5047340;28;45770;-73
2022/03/18 07:44:22;;;;;;;;;20.00;18.25;;;;;19.22;49.52;103497.25;5050590;28;45543;-73
2022/03/18 07:46:47;;;;;;;;;20.25;17.25;;;;;19.35;49.82;103496.69;5052788;28;45496;-73
2022/03/18 07:49:12;;;;;;;;;23.25;17.00;;;;;19.45;49.23;103494.41;5051043;28;50920;-74
2022/03/18 07:51:38;;;;;;;;;17.50;14.75;;;;;19.54;48.99;103507.44;5048329;28;48806;-73
2022/03/18 07:54:03;;;;;;;;;18.75;18.75;;;;;19.62;48.81;103502.53;5048128;27;46990;-73
2022/03/18 07:56:29;;;;;;;;;18.00;17.25;;;;;19.72;48.34;103504.78;5051314;27;46463;-73
2022/03/18 07:58:55;;;;;;;;;18.25;17.00;;;;;19.81;48.59;103514.22;5048805;28;46402;-73
2022/03/18 08:01:20;;;;;;;;;21.00;18.00;;;;;19.88;48.46;103510.28;5050847;27;45427;-74
2022/03/18 08:03:45;;;;;;;;;20.75;15.25;;;;;19.94;48.27;103507.28;5056156;27;45533;-74
2022/03/18 08:06:11;;;;;;;;;19.00;16.00;;;;;20.02;47.70;103512.31;5050484;27;45568;-74
2022/03/18 08:08:36;;;;;;;;;20.25;17.00;;;;;20.08;48.10;103503.06;5057760;27;47008;-74
2022/03/18 08:11:01;;;;;;;;;23.25;20.75;;;;;20.12;47.11;103497.41;5071680;27;48564;-74
2022/03/18 08:13:27;;;;;;;;;27.25;19.25;;;;;20.18;46.85;103508.88;5073536;27;45566;-75
2022/03/18 08:15:53;;;;;;;;;18.00;17.00;;;;;20.21;46.60;103511.38;5070528;27;45727;-74
2022/03/18 08:18:19;;;;;;;;;29.50;22.25;;;;;20.25;47.02;103507.56;5068175;27;45585;-75
2022/03/18 08:20:52;;;;;;;;;20.25;18.00;;;;;20.29;46.55;103517.25;5060617;27;45981;-75
2022/03/18 08:23:17;;;;;;;;;26.25;17.50;;;;;20.33;46.22;103521.53;5056588;28;45625;-75
2022/03/18 08:25:43;;;;;;;;;20.50;17.50;;;;;20.37;46.41;103514.16;5057611;27;45859;-74
2022/03/18 08:28:08;;;;;;;;;19.00;18.00;;;;;20.40;46.28;103514.88;5059384;28;45501;-74
2022/03/18 08:30:35;;;;;;;;;20.75;18.00;;;;;20.44;46.21;103518.25;5053841;27;45650;-74
2022/03/18 08:33:00;;;;;;;;;25.00;18.75;;;;;20.47;46.29;103518.13;5058806;28;45541;-74
2022/03/18 08:35:26;;;;;;;;;22.25;18.25;;;;;20.49;45.84;103524.31;5059370;27;47109;-74
2022/03/18 08:37:57;;;;;;;;;29.50;22.25;;;;;20.49;46.00;103529.72;5057360;28;45558;-75
2022/03/18 08:40:32;;;;;;;;;21.25;20.75;;;;;20.51;46.01;103529.59;5055575;27;45618;-74
2022/03/18 08:42:58;;;;;;;;;22.00;14.75;;;;;20.54;46.13;103527.66;5055470;27;50629;-74
2022/03/18 08:45:25;;;;;;;;;22.25;16.25;;;;;20.57;45.48;103534.72;5057930;27;46090;-74
2022/03/18 08:47:51;;;;;;;;;25.00;18.00;;;;;20.59;45.99;103524.69;5054642;28;46897;-74
2022/03/18 08:50:17;;;;;;;;;20.25;16.00;;;;;20.61;45.93;103521.91;5053616;28;45562;-75
2022/03/18 08:52:43;;;;;;;;;17.75;15.50;;;;;20.61;45.77;103522.81;5061240;27;45915;-72
2022/03/18 08:55:09;;;;;;;;;19.50;16.00;;;;;20.64;45.85;103517.22;5056278;28;45678;-72
2022/03/18 08:57:37;;;;;;;;;19.00;16.75;;;;;20.65;45.90;103518.97;5057144;27;46357;-72
2022/03/18 09:00:07;;;;;;;;;18.00;17.50;;;;;20.66;45.96;103517.16;5058426;27;45573;-73
2022/03/18 09:02:34;;;;;;;;;17.75;17.25;;;;;20.70;45.87;103515.16;5056929;27;45692;-74
2022/03/18 09:04:59;;;;;;;;;16.00;14.25;;;;;20.74;46.28;103523.00;5051850;27;45800;-75
2022/03/18 09:07:25;;;;;;;;;25.25;19.00;;;;;20.80;46.33;103513.69;5060400;28;46140;-75
2022/03/18 09:09:50;;;;;;;;;21.25;17.25;;;;;20.85;45.90;103510.75;5053130;28;45705;-75
2022/03/18 09:12:17;;;;;;;;;16.00;14.50;;;;;20.89;46.66;103521.31;5053386;27;45859;-74
2022/03/18 09:14:44;;;;;;;;;13.75;13.50;;;;;20.95;46.59;103516.53;5059667;27;45773;-74
2022/03/18 09:17:09;;;;;;;;;21.50;17.50;;;;;20.97;46.59;103520.06;5056658;27;47117;-75
2022/03/18 09:19:37;;;;;;;;;19.25;11.50;;;;;21.02;46.41;103524.25;5058839;27;45722;-75
2022/03/18 09:22:06;;;;;;;;;20.00;18.50;;;;;21.06;46.00;103524.94;5054532;27;45472;-75
2022/03/18 09:24:32;;;;;;;;;17.50;15.00;;;;;21.08;46.29;103517.63;5058224;27;45583;-74
2022/03/18 09:26:58;;;;;;;;;19.33;16.67;;;;;21.09;45.84;103518.50;5057772;27;47043;-74
2022/03/18 09:29:25;;;;;;;;;17.50;15.00;;;;;21.11;45.57;103527.38;5062076;28;45745;-74
2022/03/18 09:31:50;;;;;;;;;15.00;12.67;;;;;21.13;46.01;103520.94;5051546;28;45711;-74
2022/03/18 09:34:16;;;;;;;;;13.33;11.33;;;;;21.16;45.76;103523.47;5054449;27;45660;-75
2022/03/18 09:36:41;;;;;;;;;12.25;12.00;;;;;21.20;45.81;103518.78;5056136;27;46573;-75
2022/03/18 09:39:07;;;;;;;;;20.00;12.50;;;;;21.22;46.06;103529.50;5054169;27;45854;-75
2022/03/18 09:41:32;;;;;;;;;13.00;13.00;;;;;21.25;45.76;103534.72;5057451;28;45538;-76
2022/03/18 09:43:57;;;;;;;;;14.50;13.00;;;;;21.28;46.05;103531.84;5053092;27;45592;-76
2022/03/18 09:46:23;;;;;;;;;15.00;8.67;;;;;21.30;46.21;103533.50;5054121;28;45908;-75
2022/03/18 09:48:48;;;;;;;;;17.33;13.33;;;;;21.33;46.23;103535.16;5055010;27;47727;-75
2022/03/18 09:51:13;;;;;;;;;18.67;11.67;;;;;21.35;45.78;103535.06;5067062;27;45530;-75
2022/03/18 09:53:39;;;;;;;;;11.25;11.25;;;;;21.37;45.71;103525.06;5056183;27;48072;-75
2022/03/18 09:56:05;;;;;;;;;12.00;10.25;;;;;21.37;46.09;103525.94;5055187;28;45790;-74
2022/03/18 09:58:30;;;;;;;;;17.67;13.33;;;;;21.38;46.46;103522.25;5059563;27;47120;-76
2022/03/18 10:01:01;;;;;;;;;13.00;10.25;;;;;21.41;45.89;103532.03;5057807;28;51521;-75
2022/03/18 10:03:38;;;;;;;;;9.67;8.67;;;;;21.43;45.87;103527.41;5059453;28;46999;-75
2022/03/18 10:06:04;;;;;;;;;11.67;10.67;;;;;21.43;45.81;103528.31;5055577;28;45585;-75
2022/03/18 10:08:35;;;;;;;;;8.33;8.33;;;;;21.45;46.09;103529.06;5058390;27;45617;-76
2022/03/18 10:11:18;;;;;;;;;12.00;11.00;;;;;21.49;45.93;103512.69;5058217;28;45562;-75
2022/03/18 10:13:54;;;;;;;;;14.33;10.00;;;;;21.51;46.55;103517.06;5059438;27;46021;-77
2022/03/18 10:16:42;;;;;;;;;11.33;8.67;;;;;21.56;46.04;103525.78;5053914;28;46248;-77
2022/03/18 10:19:12;;;;;;;;;13.33;11.67;;;;;21.58;46.31;103521.13;5058472;27;45518;-77
2022/03/18 10:21:53;;;;;;;;;13.33;10.67;;;;;21.61;46.69;103522.78;5053357;27;45723;-77
2022/03/18 10:24:23;;;;;;;;;12.67;11.67;;;;;21.65;46.00;103512.66;5054440;28;48903;-75
2022/03/18 10:26:50;;;;;;;;;12.00;10.33;;;;;21.68;46.18;103507.09;5057762;27;45733;-74
2022/03/18 10:29:16;;;;;;;;;10.00;8.67;;;;;21.70;46.33;103515.97;5055918;27;46708;-75
2022/03/18 10:31:57;;;;;;;;;10.00;10.00;;;;;21.75;46.49;103513.03;5058309;27;45514;-75
2022/03/18 10:37:21;;;;;;;;;10.33;10.00;;;;;21.79;46.31;103514.63;5055755;27;45566;-75
2022/03/18 10:39:48;;;;;;;;;10.33;9.33;;;;;21.81;46.34;103515.38;5060217;27;45773;-75
2022/03/18 10:42:16;;;;;;;;;9.67;9.67;;;;;21.83;46.42;103518.88;5059593;28;45493;-77
2022/03/18 10:44:41;;;;;;;;;8.33;7.00;;;;;21.85;46.34;103519.66;5055523;27;46028;-75
2022/03/18 10:47:07;;;;;;;;;11.00;9.00;;;;;21.87;46.51;103508.75;5057593;28;47077;-77
2022/03/18 10:49:32;;;;;;;;;8.00;8.00;;;;;21.89;46.54;103505.00;5055044;27;45486;-77
2022/03/18 10:52:10;;;;;;;;;9.67;8.00;;;;;21.90;46.58;103512.13;5055153;27;45582;-76
2022/03/18 10:54:35;;;;;;;;;11.67;10.33;;;;;21.93;46.69;103497.56;5058469;28;46384;-77
2022/03/18 10:57:00;;;;;;;;;9.33;7.33;;;;;21.95;44.47;103493.81;5052317;27;45479;-73
2022/03/18 10:59:27;;;;;;;;;11.33;9.00;;;;;21.94;43.92;103499.28;5054242;27;46510;-73
2022/03/18 11:01:56;;;;;;;;;9.00;8.67;;;;;21.90;43.49;103492.34;5055572;28;45585;-74
2022/03/18 11:04:23;;;;;;;;;11.00;10.00;;;;;21.87;43.17;103484.41;5054792;27;45641;-74
2022/03/18 11:07:41;;;;;;;;;11.00;11.00;;;;;21.86;43.20;103488.94;5056243;27;45873;-74
2022/03/18 11:12:31;;;;;;;;;10.33;9.67;;;;;21.78;43.42;103485.84;5056559;27;45527;-76
2022/03/18 11:14:58;;;;;;;;;10.33;10.00;;;;;21.78;43.71;103486.69;5053755;27;45689;-76
2022/03/18 11:17:24;;;;;;;;;10.00;10.00;;;;;21.80;43.31;103482.09;5051138;27;45933;-77
2022/03/18 11:19:52;;;;;;;;;11.67;9.00;;;;;21.85;43.57;103481.81;5051652;27;45913;-76
2022/03/18 11:22:20;;;;;;;;;11.00;10.33;;;;;21.88;43.69;103475.34;5051255;27;47048;-75
2022/03/18 11:24:47;;;;;;;;;10.00;8.67;;;;;21.93;43.70;103473.22;5050949;28;45503;-75
2022/03/18 11:27:13;;;;;;;;;8.67;7.33;;;;;21.98;43.88;103480.13;5054917;27;46947;-76
2022/03/18 11:29:40;;;;;;;;;10.33;9.00;;;;;22.04;44.05;103470.78;5055464;27;45514;-77
2022/03/18 11:32:12;;;;;;;;;9.67;9.67;;;;;22.10;43.82;103470.41;5057985;27;45595;-77
2022/03/18 11:34:57;;;;;;;;;13.00;10.00;;;;;22.16;44.28;103470.97;5056045;27;45609;-76
2022/03/18 11:37:25;;;;;;;;;10.33;10.33;;;;;22.21;44.50;103467.03;5057480;27;45657;-77
2022/03/18 11:39:52;;;;;;;;;8.00;8.00;;;;;22.26;44.04;103466.75;5057028;27;45590;-75
2022/03/18 11:42:19;;;;;;;;;15.67;12.67;;;;;22.28;43.09;103455.84;5059852;27;45525;-78
2022/03/18 11:44:52;;;;;;;;;11.00;9.00;;;;;22.27;42.79;103465.78;5057763;28;45556;-75
2022/03/18 11:47:20;;;;;;;;;11.33;11.33;;;;;22.25;42.67;103463.16;5053953;28;47537;-75
2022/03/18 11:49:47;;;;;;;;;11.00;9.33;;;;;22.23;42.55;103454.28;5056801;27;45505;-76
2022/03/18 11:52:12;;;;;;;;;14.00;12.67;;;;;22.22;42.16;103451.66;5059434;28;45670;-77
2022/03/18 11:54:50;;;;;;;;;11.33;9.67;;;;;22.21;41.44;103444.50;5053591;27;45801;-75
2022/03/18 11:57:43;;;;;;;;;9.00;8.00;;;;;22.18;40.42;103434.75;5058200;27;47194;-77
2022/03/18 12:00:28;;;;;;;;;20.33;12.67;;;;;22.16;38.83;103433.09;5050088;27;49784;-72
2022/03/18 12:02:54;;;;;;;;;12.00;12.00;;;;;22.11;37.86;103423.44;5056287;28;46974;-73
2022/03/18 12:05:20;;;;;;;;;10.33;10.33;;;;;22.09;38.59;103433.50;5054128;28;47120;-73
2022/03/18 12:07:47;;;;;;;;;12.67;11.00;;;;;22.07;39.19;103429.16;5055349;28;46332;-73
2022/03/18 12:10:14;;;;;;;;;10.67;10.67;;;;;22.01;39.52;103416.84;5056867;27;45638;-73
2022/03/18 12:12:44;;;;;;;;;14.67;8.67;;;;;22.01;39.52;103421.38;5056531;28;47120;-75
2022/03/18 12:15:18;;;;;;;;;8.67;8.33;;;;;21.99;39.22;103413.38;5055842;28;46891;-75
2022/03/18 12:17:55;;;;;;;;;8.67;8.67;;;;;21.97;39.16;103421.59;5056107;28;48835;-73
2022/03/18 12:20:31;;;;;;;;;13.00;11.67;;;;;21.96;38.88;103419.81;5042032;28;45534;-73
2022/03/18 12:22:58;;;;;;;;;11.33;10.00;;;;;21.97;37.93;103404.47;5055851;27;45494;-73
2022/03/18 12:25:24;;;;;;;;;12.67;9.00;;;;;21.98;38.21;103398.09;5056006;28;45548;-73
2022/03/18 12:27:52;;;;;;;;;13.00;11.00;;;;;21.96;37.29;103400.91;5053801;27;47357;-73
2022/03/18 12:30:19;;;;;;;;;8.00;8.00;;;;;21.96;37.46;103400.91;5056842;27;45651;-73
2022/03/18 12:32:48;;;;;;;;;9.00;8.33;;;;;21.95;37.57;103401.00;5054675;27;45533;-73
2022/03/18 12:35:16;;;;;;;;;11.00;8.00;;;;;21.94;37.52;103400.13;5061869;27;45700;-73
2022/03/18 12:37:45;;;;;;;;;13.00;9.00;;;;;21.93;37.25;103402.91;5057792;28;45629;-73
2022/03/18 12:40:16;;;;;;;;;9.67;8.00;;;;;21.92;37.11;103391.25;5054824;27;45872;-73
2022/03/18 12:42:56;;;;;;;;;10.67;9.00;;;;;21.91;37.21;103381.38;5058045;27;47060;-73
2022/03/18 12:45:34;;;;;;;;;9.00;8.33;;;;;21.92;37.01;103384.97;5058757;28;45589;-73
2022/03/18 12:48:07;;;;;;;;;10.00;8.33;;;;;21.90;37.00;103384.22;5061020;27;46912;-73
2022/03/18 12:50:37;;;;;;;;;10.00;8.00;;;;;21.91;37.26;103391.34;5055215;28;45753;-73
2022/03/18 12:53:46;;;;;;;;;5.00;5.00;;;;;21.91;36.25;103377.81;5060247;27;45752;-73
2022/03/18 12:56:16;;;;;;;;;9.00;9.00;;;;;21.90;36.14;103355.31;4972856;28;45586;-76
2022/03/18 12:58:41;;;;;;;;;7.00;7.00;;;;;21.90;36.39;103368.84;4974683;28;45774;-75
2022/03/18 13:01:11;;;;;;;;;6.00;6.00;;;;;21.91;36.50;103369.72;4978939;28;45650;-73
2022/03/18 13:03:44;;;;;;;;;10.67;7.33;;;;;21.91;36.62;103361.59;4981382;28;47305;-76
2022/03/18 13:06:21;;;;;;;;;8.00;8.00;;;;;21.92;36.48;103361.50;4981040;28;45672;-78
2022/03/18 13:08:53;;;;;;;;;7.33;7.00;;;;;21.95;36.97;103350.50;4979775;28;46232;-77
2022/03/18 13:11:20;;;;;;;;;6.00;6.00;;;;;22.03;37.44;103358.13;4976970;28;45465;-76
2022/03/18 13:13:48;;;;;;;;;7.67;5.67;;;;;22.08;37.59;103337.06;4975423;28;45564;-76
2022/03/18 13:16:15;;;;;;;;;7.67;7.00;;;;;22.16;37.26;103343.84;4971123;28;46968;-76
2022/03/18 13:18:50;;;;;;;;;8.00;6.33;;;;;22.22;37.63;103344.34;4976848;28;45800;-77
2022/03/18 13:21:15;;;;;;;;;6.00;6.00;;;;;22.28;37.76;103347.63;4978523;28;45564;-78
2022/03/18 13:23:42;;;;;;;;;8.67;7.00;;;;;22.35;37.97;103340.84;4985632;28;45430;-78
2022/03/18 13:26:13;;;;;;;;;8.33;5.33;;;;;22.41;38.43;103340.47;5007554;28;45384;-79
2022/03/18 13:28:40;;;;;;;;;5.00;5.00;;;;;22.47;38.25;103340.06;5072542;27;46117;-78
2022/03/18 13:33:54;;;;;;;;;6.00;5.00;;;;;22.59;38.10;103335.72;5073679;27;45483;-78
2022/03/18 13:36:29;;;;;;;;;4.00;4.00;;;;;22.64;38.91;103327.28;5060117;28;45744;-78
2022/03/18 13:38:58;;;;;;;;;6.00;6.00;;;;;22.70;38.60;103340.44;5066989;27;45547;-78
2022/03/18 13:41:25;;;;;;;;;5.00;5.00;;;;;22.74;39.14;103323.03;5064430;28;45477;-76
2022/03/18 13:43:56;;;;;;;;;6.00;5.00;;;;;22.80;38.89;103320.91;5074475;27;45821;-75
2022/03/18 13:46:27;;;;;;;;;5.00;5.00;;;;;22.85;38.86;103318.75;5068836;27;45484;-76
2022/03/18 13:49:07;;;;;;;;;6.33;4.67;;;;;22.89;39.26;103315.72;5072174;28;45396;-76
2022/03/18 13:51:47;;;;;;;;;7.33;4.00;;;;;22.94;39.59;103315.44;5075252;27;45479;-77
2022/03/18 13:54:17;;;;;;;;;5.33;5.00;;;;;22.98;38.82;103322.38;5071234;28;45506;-78
2022/03/18 13:57:02;;;;;;;;;3.67;3.67;;;;;23.02;39.38;103299.50;5073471;27;45730;-76
2022/03/18 13:59:29;;;;;;;;;5.33;2.33;;;;;23.05;39.58;103303.84;5065982;28;46424;-75
2022/03/18 14:02:26;;;;;;;;;3.33;3.33;;;;;23.06;39.18;103289.38;5073608;27;45594;-77
2022/03/18 14:04:54;;;;;;;;;4.00;4.00;;;;;23.08;39.91;103305.50;5065536;28;45643;-78
2022/03/18 14:07:20;;;;;;;;;5.67;3.00;;;;;23.08;39.58;103306.38;5055707;28;45664;-78
2022/03/18 14:09:56;;;;;;;;;4.00;3.67;;;;;23.10;39.75;103298.16;5059953;28;46919;-78
2022/03/18 14:12:23;;;;;;;;;3.00;2.00;;;;;23.09;39.86;103299.97;5071366;27;45402;-75
2022/03/18 14:14:50;;;;;;;;;4.33;3.00;;;;;23.10;39.77;103287.31;5063482;27;46603;-76
2022/03/18 14:17:18;;;;;;;;;6.00;4.00;;;;;23.12;40.20;103291.66;5066811;27;45394;-77
2022/03/18 14:19:54;;;;;;;;;3.67;3.67;;;;;23.13;39.92;103292.53;5066910;27;47381;-77
2022/03/18 14:22:33;;;;;;;;;4.67;3.33;;;;;23.12;40.40;103291.66;5071130;27;45335;-77
2022/03/18 14:25:00;;;;;;;;;6.00;4.33;;;;;23.12;40.57;103277.22;5074371;27;45767;-78
2022/03/18 14:27:26;;;;;;;;;5.67;4.00;;;;;23.12;40.66;103282.66;5058853;27;46150;-79
2022/03/18 14:29:52;;;;;;;;;3.33;3.33;;;;;23.13;40.74;103274.41;5070982;27;46120;-78
2022/03/18 14:32:18;;;;;;;;;7.00;4.00;;;;;23.14;40.68;103281.56;5068744;27;45536;-78
2022/03/18 14:34:45;;;;;;;;;3.00;3.00;;;;;23.14;40.51;103264.47;5079653;27;45520;-79
2022/03/18 14:37:10;;;;;;;;;5.33;5.33;;;;;23.15;40.67;103272.50;5079840;27;45452;-77
2022/03/18 14:39:35;;;;;;;;;6.00;5.33;;;;;23.16;41.01;103268.81;5074094;27;47546;-78
2022/03/18 14:42:01;;;;;;;;;4.67;4.33;;;;;23.17;41.09;103251.56;5062356;27;45737;-79
2022/03/18 14:44:26;;;;;;;;;3.00;2.33;;;;;23.19;41.31;103269.56;5077877;27;45505;-77
2022/03/18 14:46:51;;;;;;;;;8.00;3.00;;;;;23.19;41.31;103259.59;5071583;27;51591;-79
2022/03/18 14:49:17;;;;;;;;;4.00;4.00;;;;;23.20;41.45;103261.31;5071010;28;59503;-79
2022/03/18 14:51:42;;;;;;;;;2.33;2.33;;;;;23.22;41.40;103255.81;5071678;27;45583;-78
2022/03/18 14:54:07;;;;;;;;;4.00;4.00;;;;;23.22;41.57;103247.69;5072242;27;45374;-77
2022/03/18 14:56:32;;;;;;;;;2.00;2.00;;;;;23.21;38.92;103249.50;5051783;28;45431;-74
2022/03/18 14:58:59;;;;;;;;;3.00;3.00;;;;;23.13;37.93;103241.06;5062029;28;46365;-74
2022/03/18 15:01:25;;;;;;;;;4.33;3.67;;;;;23.05;37.57;103243.41;5072070;27;45448;-74
2022/03/18 15:03:51;;;;;;;;;3.00;3.00;;;;;22.94;37.82;103239.59;5063705;27;46011;-75
2022/03/18 15:06:17;;;;;;;;;2.00;2.00;;;;;22.86;37.66;103247.38;5077866;27;45516;-75
